This is the latest recevied weather packets stored in our database for station/object SP8AQK-13. If no packets are shown the sender has not sent any weather packets the latest 10 day(s).
| Time | Temp. | Humidity | Pressure | Rain* | Wind** | Luminosity | Snow |
|---|---|---|---|---|---|---|---|
| 1777770139 | 6.67° C | 83% | 1023.4 hPa | - | - | - | - |
| 1777768938 | 7.22° C | 78% | 1023.4 hPa | - | - | - | - |
| 1777767738 | 7.78° C | 75% | 1023.2 hPa | - | - | - | - |
| 1777766537 | 9.44° C | 67% | 1023.3 hPa | - | - | - | - |
| 1777765336 | 11.11° C | 57% | 1023 hPa | - | - | - | - |
| 1777764135 | 11.11° C | 57% | 1022.9 hPa | - | - | - | - |
| 1777762935 | 10.56° C | 60% | 1023.1 hPa | - | - | - | - |
| 1777761734 | 10.56° C | 60% | 1023.2 hPa | - | - | - | - |
| 1777760533 | 10.56° C | 64% | 1023.5 hPa | - | - | - | - |
| 1777759332 | 10.56° C | 63% | 1023.6 hPa | - | - | - | - |
| 1777758131 | 10.56° C | 62% | 1023.7 hPa | - | - | - | - |
| 1777756931 | 11.11° C | 63% | 1023.7 hPa | - | - | - | - |
| 1777755730 | 11.11° C | 63% | 1023.9 hPa | - | - | - | - |
| 1777754529 | 11.11° C | 63% | 1023.7 hPa | - | - | - | - |
| 1777753329 | 11.67° C | 61% | 1023.6 hPa | - | - | - | - |
| 1777752128 | 11.11° C | 66% | 1023.7 hPa | - | - | - | - |
| 1777750927 | 11.11° C | 67% | 1023.8 hPa | - | - | - | - |
| 1777749726 | 11.11° C | 69% | 1023.9 hPa | - | - | - | - |
| 1777748526 | 11.11° C | 68% | 1023.8 hPa | - | - | - | - |
| 1777747325 | 12.22° C | 66% | 1023.7 hPa | - | - | - | - |
| 1777746124 | 12.78° C | 64% | 1023.4 hPa | - | - | - | - |
| 1777744924 | 13.89° C | 60% | 1023.3 hPa | - | - | - | - |
| 1777743723 | 14.44° C | 57% | 1022.9 hPa | - | - | - | - |
| 1777742522 | 15.56° C | 52% | 1022.8 hPa | - | - | - | - |
| 1777741322 | 17.22° C | 46% | 1022.7 hPa | - | - | - | - |
* Rain since midnight (hover to see other rain measurements)
** Current wind speed in m/s (hover to see current wind gust speed)